Time;durP1;ratioP1;P1;durP2;ratioP2;P2;SDS_P1;SDS_P2;PMS_P1;PMS_P2;Temp;Humidity;BMP_temperature;BMP_pressure;BME280_temperature;BME280_humidity;BME280_pressure;Samples;Min_cycle;Max_cycle;Signal;HPM_P1;HPM_P2
2023/09/24 00:02:11;;;;;;;;;;;;;;;15.07;57.24;102234.06;4968368;28;124168;-82
2023/09/24 00:04:39;;;;;;;;;;;;;;;15.05;57.28;102241.25;4968670;28;119796;-81
2023/09/24 00:07:06;;;;;;;;;;;;;;;15.04;57.18;102243.06;4967432;28;118539;-82
2023/09/24 00:09:33;;;;;;;;;;;;;;;15.02;57.25;102246.75;4959569;28;124860;-81
2023/09/24 00:12:00;;;;;;;;;;;;;;;14.99;57.35;102243.28;4962850;28;124752;-81
2023/09/24 00:14:27;;;;;;;;;;;;;;;14.97;57.22;102250.47;4954814;28;120538;-81
2023/09/24 00:16:55;;;;;;;;;;;;;;;14.95;57.33;102246.97;4968580;28;118828;-81
2023/09/24 00:19:23;;;;;;;;;;;;;;;14.93;57.21;102248.84;4964453;28;125110;-81
2023/09/24 00:21:50;;;;;;;;;;;;;;;14.93;57.26;102253.31;4963265;28;122749;-81
2023/09/24 00:24:17;;;;;;;;;;;;;;;14.91;57.41;102250.72;4954509;28;121196;-83
2023/09/24 00:26:45;;;;;;;;;;;;;;;14.90;57.44;102254.31;4966747;28;119312;-81
2023/09/24 00:29:12;;;;;;;;;;;;;;;14.89;57.28;102257.03;4968063;28;124104;-81
2023/09/24 00:31:39;;;;;;;;;;;;;;;14.88;57.22;102261.53;4967094;28;125122;-81
2023/09/24 00:34:06;;;;;;;;;;;;;;;14.85;57.26;102256.28;4969469;28;120481;-82
2023/09/24 00:36:33;;;;;;;;;;;;;;;14.84;57.39;102259.88;4968274;28;118695;-82
2023/09/24 00:39:01;;;;;;;;;;;;;;;14.83;57.28;102252.81;4968100;28;124694;-83
2023/09/24 00:41:28;;;;;;;;;;;;;;;14.81;57.25;102260.03;4969502;28;123580;-84
2023/09/24 00:43:57;;;;;;;;;;;;;;;14.81;57.33;102254.69;4963988;28;121197;-81
2023/09/24 00:46:25;;;;;;;;;;;;;;;14.81;57.40;102254.69;4963713;28;119107;-82
2023/09/24 00:48:55;;;;;;;;;;;;;;;14.80;57.40;102252.94;4956954;28;125154;-81
2023/09/24 00:51:23;;;;;;;;;;;;;;;14.81;57.38;102251.16;4955629;28;123519;-81
2023/09/24 00:53:51;;;;;;;;;;;;;;;14.79;57.51;102257.41;4978912;28;118868;-81
2023/09/24 00:56:19;;;;;;;;;;;;;;;14.80;57.52;102258.28;4967657;28;120231;-81
2023/09/24 00:58:50;;;;;;;;;;;;;;;14.77;57.43;102258.41;4963216;28;122426;-81
2023/09/24 01:01:17;;;;;;;;;;;;;;;14.78;57.37;102262.81;4943694;28;123225;-82
2023/09/24 01:03:46;;;;;;;;;;;;;;;14.77;57.33;102274.41;4947564;28;118949;-82
2023/09/24 01:06:14;;;;;;;;;;;;;;;14.77;57.36;102269.09;4963612;28;117723;-83
2023/09/24 01:08:42;;;;;;;;;;;;;;;14.76;57.38;102267.34;4950553;28;124689;-81
2023/09/24 01:11:09;;;;;;;;;;;;;;;14.76;57.51;102278.88;4960611;28;125951;-82
2023/09/24 01:13:44;;;;;;;;;;;;;;;14.75;57.35;102276.28;4967563;28;120154;-84
2023/09/24 01:16:12;;;;;;;;;;;;;;;14.74;57.36;102271.88;4962015;28;119349;-81
2023/09/24 01:18:41;;;;;;;;;;;;;;;14.73;57.33;102278.13;4964284;28;124677;-81
2023/09/24 01:21:13;;;;;;;;;;;;;;;14.70;57.25;102279.13;4965194;28;122952;-81
2023/09/24 01:23:42;;;;;;;;;;;;;;;14.69;57.32;102271.16;4972679;28;118682;-81
2023/09/24 01:26:10;;;;;;;;;;;;;;;14.67;57.38;102273.03;4963693;28;117883;-85
2023/09/24 01:28:37;;;;;;;;;;;;;;;14.64;57.28;102267.84;4968739;28;126117;-83
2023/09/24 01:31:05;;;;;;;;;;;;;;;14.63;57.33;102268.75;4971660;28;127169;-82
2023/09/24 01:33:32;;;;;;;;;;;;;;;14.61;57.33;102274.13;4972953;28;119793;-81
2023/09/24 01:35:59;;;;;;;;;;;;;;;14.58;57.46;102263.63;4950780;28;115207;-81
2023/09/24 01:38:27;;;;;;;;;;;;;;;14.56;57.47;102271.63;4970525;28;124859;-81
2023/09/24 01:40:54;;;;;;;;;;;;;;;14.55;57.41;102264.53;4953955;28;123402;-81
2023/09/24 01:43:21;;;;;;;;;;;;;;;14.53;57.31;102271.75;4952178;28;119412;-83
2023/09/24 01:45:48;;;;;;;;;;;;;;;14.52;57.54;102264.69;4959240;28;117710;-84
2023/09/24 01:48:18;;;;;;;;;;;;;;;14.50;57.55;102265.66;4950582;28;125908;-81
2023/09/24 01:50:46;;;;;;;;;;;;;;;14.48;57.54;102263.03;4965905;28;123822;-82
2023/09/24 01:53:14;;;;;;;;;;;;;;;14.47;57.43;102266.66;4968094;28;120845;-83
2023/09/24 01:55:41;;;;;;;;;;;;;;;14.46;57.40;102264.91;4973500;28;118375;-81
2023/09/24 01:58:09;;;;;;;;;;;;;;;14.45;57.49;102268.50;4971065;28;125059;-82
2023/09/24 02:00:36;;;;;;;;;;;;;;;14.43;57.47;102262.38;4980106;28;124279;-82
2023/09/24 02:03:09;;;;;;;;;;;;;;;14.41;57.54;102261.56;4954880;28;119204;-81
2023/09/24 02:05:39;;;;;;;;;;;;;;;14.39;57.53;102258.06;4971795;28;119591;-83
2023/09/24 02:08:08;;;;;;;;;;;;;;;14.38;57.58;102261.66;4970280;28;125405;-82
2023/09/24 02:10:38;;;;;;;;;;;;;;;14.36;57.55;102258.19;4958782;28;124813;-82
2023/09/24 02:13:06;;;;;;;;;;;;;;;14.34;57.35;102260.06;4948374;28;120557;-83
2023/09/24 02:15:34;;;;;;;;;;;;;;;14.30;57.43;102255.78;4979077;28;118109;-87
2023/09/24 02:18:04;;;;;;;;;;;;;;;14.26;57.56;102272.78;4993869;28;124654;-83
2023/09/24 02:20:32;;;;;;;;;;;;;;;14.23;57.61;102272.91;4974134;28;124257;-82
2023/09/24 02:23:00;;;;;;;;;;;;;;;14.19;57.49;102273.03;4981348;28;119193;-81
2023/09/24 02:25:32;;;;;;;;;;;;;;;14.17;57.50;102277.53;4994812;28;118918;-85
2023/09/24 02:27:59;;;;;;;;;;;;;;;14.16;57.60;102278.44;4963693;28;123472;-83
2023/09/24 02:30:28;;;;;;;;;;;;;;;14.14;57.56;102285.63;4973856;28;123518;-82
2023/09/24 02:33:00;;;;;;;;;;;;;;;14.12;57.42;102283.97;4967226;28;118827;-82
2023/09/24 02:35:28;;;;;;;;;;;;;;;14.08;57.57;102288.53;4967530;28;118468;-81
2023/09/24 02:37:55;;;;;;;;;;;;;;;14.05;57.59;102285.97;4971378;28;124421;-84
2023/09/24 02:40:28;;;;;;;;;;;;;;;14.02;57.51;102286.09;4957017;28;123809;-82
2023/09/24 02:43:00;;;;;;;;;;;;;;;13.99;57.45;102289.75;4971875;28;119709;-83
2023/09/24 02:45:29;;;;;;;;;;;;;;;13.96;57.39;102286.34;4971833;28;118774;-82
2023/09/24 02:47:56;;;;;;;;;;;;;;;13.94;57.60;102288.19;4974441;28;122391;-83
2023/09/24 02:50:25;;;;;;;;;;;;;;;13.91;57.45;102289.16;4971382;28;125261;-82
2023/09/24 02:52:56;;;;;;;;;;;;;;;13.90;57.51;102297.19;4962028;28;119459;-81
2023/09/24 02:55:24;;;;;;;;;;;;;;;13.87;57.54;102292.00;4973467;28;119810;-82
2023/09/24 02:57:51;;;;;;;;;;;;;;;13.85;57.60;102291.19;4972797;28;123028;-84
2023/09/24 03:00:26;;;;;;;;;;;;;;;13.83;57.69;102291.22;4957330;28;123192;-82
2023/09/24 03:02:55;;;;;;;;;;;;;;;13.82;57.57;102293.03;4969117;28;119168;-84
2023/09/24 03:05:24;;;;;;;;;;;;;;;13.80;57.53;102286.84;4972383;28;119815;-84
2023/09/24 03:07:54;;;;;;;;;;;;;;;13.79;57.57;102290.47;4971062;28;123999;-84
2023/09/24 03:10:23;;;;;;;;;;;;;;;13.78;57.53;102288.72;4966162;28;125341;-84
2023/09/24 03:12:50;;;;;;;;;;;;;;;13.77;57.65;102292.31;4974761;28;119848;-82
2023/09/24 03:15:19;;;;;;;;;;;;;;;13.77;57.61;102297.63;4961629;28;118458;-82
2023/09/24 03:17:47;;;;;;;;;;;;;;;13.76;57.63;102295.88;4971834;28;124341;-81
2023/09/24 03:20:16;;;;;;;;;;;;;;;13.75;57.78;102299.50;4947883;28;123003;-85
2023/09/24 03:22:50;;;;;;;;;;;;;;;13.73;57.64;102301.34;4963495;28;118754;-82
2023/09/24 03:25:18;;;;;;;;;;;;;;;13.70;57.57;102301.44;4962146;28;119443;-82
2023/09/24 03:27:47;;;;;;;;;;;;;;;13.67;57.69;102306.00;4967021;28;122552;-82
2023/09/24 03:30:17;;;;;;;;;;;;;;;13.65;57.66;102308.69;4959693;28;122483;-86
2023/09/24 03:32:46;;;;;;;;;;;;;;;13.63;57.66;102315.88;4960031;28;118859;-81
2023/09/24 03:35:15;;;;;;;;;;;;;;;13.59;57.64;102319.56;4968816;28;119843;-83
2023/09/24 03:37:45;;;;;;;;;;;;;;;13.58;57.55;102328.47;4971014;28;124307;-83
2023/09/24 03:40:16;;;;;;;;;;;;;;;13.54;57.50;102321.50;4969614;28;125164;-84
2023/09/24 03:42:44;;;;;;;;;;;;;;;13.52;57.52;102318.03;4966186;28;118616;-83
2023/09/24 03:45:15;;;;;;;;;;;;;;;13.49;57.61;102318.16;4960028;28;119675;-82
2023/09/24 03:47:43;;;;;;;;;;;;;;;13.46;57.51;102328.88;4976604;28;124700;-81
2023/09/24 03:50:13;;;;;;;;;;;;;;;13.42;57.63;102334.31;4967139;28;124224;-83
2023/09/24 03:52:41;;;;;;;;;;;;;;;13.39;57.50;102331.75;4940050;28;120373;-82
2023/09/24 03:55:08;;;;;;;;;;;;;;;13.37;57.56;102330.94;4967474;28;120062;-83
2023/09/24 03:57:36;;;;;;;;;;;;;;;13.34;57.73;102341.69;4969870;28;124190;-82
2023/09/24 04:00:38;;;;;;;;;;;;;;;13.31;57.71;102336.44;4969002;28;123080;-83
2023/09/24 04:02:58;;;;;;;;;;;;;;;13.28;57.70;102331.22;4969179;28;118895;-81
2023/09/24 04:05:25;;;;;;;;;;;;;;;13.25;57.68;102325.97;4965575;28;117618;-84
2023/09/24 04:07:53;;;;;;;;;;;;;;;13.23;57.72;102322.50;4955058;28;123585;-83
2023/09/24 04:10:21;;;;;;;;;;;;;;;13.21;57.72;102329.66;4961270;28;124107;-84
2023/09/24 04:12:51;;;;;;;;;;;;;;;13.20;57.71;102333.22;4958781;28;120975;-84
2023/09/24 04:15:28;;;;;;;;;;;;;;;13.17;57.73;102338.66;4959198;28;119709;-83
2023/09/24 04:17:57;;;;;;;;;;;;;;;13.14;57.65;102349.41;4956211;28;125948;-82
2023/09/24 04:20:29;;;;;;;;;;;;;;;13.12;57.52;102351.22;4962960;28;123493;-81
2023/09/24 04:22:56;;;;;;;;;;;;;;;13.08;57.65;102354.91;4961576;28;119068;-81
2023/09/24 04:25:26;;;;;;;;;;;;;;;13.07;57.76;102353.16;4967404;28;117005;-82
2023/09/24 04:27:53;;;;;;;;;;;;;;;13.04;57.77;102354.13;4966981;28;124060;-82
2023/09/24 04:30:22;;;;;;;;;;;;;;;13.00;57.68;102353.34;4963998;28;124065;-82
2023/09/24 04:32:53;;;;;;;;;;;;;;;12.99;57.63;102359.59;4966871;28;120350;-81
2023/09/24 04:35:21;;;;;;;;;;;;;;;12.97;57.77;102369.41;4961160;28;119424;-84
2023/09/24 04:37:48;;;;;;;;;;;;;;;12.95;57.61;102371.22;4966008;28;123833;-83
2023/09/24 04:40:15;;;;;;;;;;;;;;;12.93;57.77;102367.75;4959720;28;124453;-82
2023/09/24 04:42:44;;;;;;;;;;;;;;;12.92;57.75;102366.03;4945865;28;119720;-81
2023/09/24 04:45:12;;;;;;;;;;;;;;;12.90;57.76;102357.19;4947827;28;118242;-83
2023/09/24 04:47:39;;;;;;;;;;;;;;;12.90;57.73;102364.31;4956196;28;124724;-82
2023/09/24 04:50:07;;;;;;;;;;;;;;;12.89;57.76;102360.78;4965628;28;123167;-83
2023/09/24 04:52:37;;;;;;;;;;;;;;;12.86;57.62;102360.88;4969012;28;119702;-82
2023/09/24 04:55:05;;;;;;;;;;;;;;;12.84;57.74;102368.03;4967317;28;118840;-81
2023/09/24 04:57:32;;;;;;;;;;;;;;;12.83;57.83;102361.00;4969550;28;124115;-81
2023/09/24 04:59:59;;;;;;;;;;;;;;;12.83;57.76;102366.31;4966131;28;124147;-81
2023/09/24 05:02:26;;;;;;;;;;;;;;;12.81;57.75;102373.47;4967541;28;119360;-81
2023/09/24 05:04:54;;;;;;;;;;;;;;;12.81;57.79;102368.16;4970846;28;118319;-81
2023/09/24 05:07:21;;;;;;;;;;;;;;;12.79;57.77;102367.28;4967102;28;125786;-81
2023/09/24 05:09:50;;;;;;;;;;;;;;;12.79;57.83;102375.25;4971455;28;124286;-81
2023/09/24 05:12:17;;;;;;;;;;;;;;;12.78;57.75;102373.53;4966595;28;119798;-81
2023/09/24 05:14:44;;;;;;;;;;;;;;;12.76;57.74;102376.25;4965205;28;120574;-81
2023/09/24 05:17:11;;;;;;;;;;;;;;;12.74;57.77;102377.22;4963952;28;124400;-82
2023/09/24 05:19:38;;;;;;;;;;;;;;;12.73;57.83;102380.78;4970268;28;123913;-81
2023/09/24 05:22:07;;;;;;;;;;;;;;;12.72;57.77;102389.69;4967015;28;120337;-82
2023/09/24 05:24:34;;;;;;;;;;;;;;;12.69;57.78;102392.41;4966646;28;118876;-81
2023/09/24 05:27:02;;;;;;;;;;;;;;;12.68;57.70;102386.25;4955153;28;123515;-81
2023/09/24 05:29:29;;;;;;;;;;;;;;;12.65;57.84;102379.19;4964753;28;123602;-81
2023/09/24 05:31:56;;;;;;;;;;;;;;;12.63;57.75;102381.03;4963740;28;119566;-80
2023/09/24 05:34:23;;;;;;;;;;;;;;;12.61;57.78;102385.53;4964679;28;119895;-80
2023/09/24 05:36:50;;;;;;;;;;;;;;;12.60;57.84;102391.78;4967164;28;126071;-80
2023/09/24 05:39:18;;;;;;;;;;;;;;;12.59;57.81;102394.47;4958212;28;122869;-81
2023/09/24 05:41:45;;;;;;;;;;;;;;;12.59;57.92;102400.66;4966187;28;119512;-81
2023/09/24 05:44:15;;;;;;;;;;;;;;;12.58;57.95;102406.91;4968667;28;119674;-80
2023/09/24 05:46:42;;;;;;;;;;;;;;;12.57;57.86;102402.47;4966709;28;125062;-80
2023/09/24 05:49:10;;;;;;;;;;;;;;;12.57;57.90;102407.81;4963566;28;123844;-80
2023/09/24 05:51:37;;;;;;;;;;;;;;;12.59;57.92;102411.28;4962091;28;118264;-80
2023/09/24 05:54:04;;;;;;;;;;;;;;;12.58;57.96;102404.25;4966056;28;118670;-80
2023/09/24 05:56:32;;;;;;;;;;;;;;;12.60;58.02;102413.03;4969313;28;124465;-81
2023/09/24 05:58:59;;;;;;;;;;;;;;;12.61;57.97;102404.13;4969176;28;123656;-80
2023/09/24 06:01:26;;;;;;;;;;;;;;;12.63;57.97;102412.94;4969336;28;119482;-80
2023/09/24 06:03:53;;;;;;;;;;;;;;;12.63;57.95;102412.94;4960424;28;118969;-81
2023/09/24 06:06:21;;;;;;;;;;;;;;;12.65;58.09;102413.75;4943837;28;124260;-81
2023/09/24 06:08:49;;;;;;;;;;;;;;;12.69;57.96;102421.66;4964328;28;123695;-80
2023/09/24 06:11:16;;;;;;;;;;;;;;;12.72;58.05;102421.59;4965869;28;119591;-82
2023/09/24 06:13:43;;;;;;;;;;;;;;;12.74;58.08;102425.06;4968724;28;119414;-79
2023/09/24 06:16:10;;;;;;;;;;;;;;;12.78;57.95;102437.34;4964018;28;124338;-81
2023/09/24 06:18:37;;;;;;;;;;;;;;;12.81;58.04;102426.63;4949027;28;125138;-81
2023/09/24 06:21:07;;;;;;;;;;;;;;;12.84;58.16;102435.38;4961967;28;119680;-81
2023/09/24 06:23:34;;;;;;;;;;;;;;;12.89;58.20;102435.25;4965812;28;118146;-81
2023/09/24 06:26:04;;;;;;;;;;;;;;;12.94;58.25;102438.66;4953856;28;123290;-85
2023/09/24 06:28:31;;;;;;;;;;;;;;;13.02;58.37;102439.28;4934200;28;125950;-83
2023/09/24 06:30:59;;;;;;;;;;;;;;;13.14;58.54;102439.84;4947052;28;119619;-83
2023/09/24 06:33:26;;;;;;;;;;;;;;;13.26;58.50;102452.78;4963380;28;118923;-82
2023/09/24 06:35:54;;;;;;;;;;;;;;;13.39;58.65;102450.63;4965362;28;125555;-81
2023/09/24 06:38:21;;;;;;;;;;;;;;;13.54;58.60;102449.28;4969157;28;123620;-80
2023/09/24 06:40:58;;;;;;;;;;;;;;;13.70;58.76;102453.19;4978932;28;119038;-81
2023/09/24 06:43:25;;;;;;;;;;;;;;;13.88;58.80;102453.50;4980344;28;117489;-80
2023/09/24 06:45:56;;;;;;;;;;;;;;;14.04;58.78;102449.41;4963127;28;124223;-81
2023/09/24 06:48:23;;;;;;;;;;;;;;;14.22;58.88;102453.22;4956379;28;124344;-80
2023/09/24 06:50:51;;;;;;;;;;;;;;;14.40;58.82;102457.06;4955706;28;118669;-82
2023/09/24 06:53:18;;;;;;;;;;;;;;;14.55;58.63;102456.53;4961364;28;117897;-81
2023/09/24 06:55:45;;;;;;;;;;;;;;;14.71;58.57;102456.00;4970969;28;124204;-81
2023/09/24 06:58:13;;;;;;;;;;;;;;;14.84;58.59;102467.09;4958142;28;125097;-80
2023/09/24 07:00:40;;;;;;;;;;;;;;;14.94;58.36;102458.69;4960951;28;120107;-80
2023/09/24 07:03:07;;;;;;;;;;;;;;;15.04;58.35;102456.53;4967451;28;119351;-82
2023/09/24 07:05:36;;;;;;;;;;;;;;;15.14;58.36;102465.06;4960659;28;123739;-81
2023/09/24 07:08:03;;;;;;;;;;;;;;;15.24;58.42;102461.13;4964084;28;123396;-81
2023/09/24 07:10:31;;;;;;;;;;;;;;;15.33;58.29;102460.78;4967501;28;119686;-83
2023/09/24 07:12:57;;;;;;;;;;;;;;;15.44;58.39;102467.47;4969707;28;118681;-81
2023/09/24 07:15:25;;;;;;;;;;;;;;;15.52;58.42;102465.34;4967598;28;124335;-83
2023/09/24 07:17:52;;;;;;;;;;;;;;;15.60;58.36;102468.63;4965325;28;123988;-80
2023/09/24 07:20:20;;;;;;;;;;;;;;;15.67;58.20;102459.44;4960892;28;119772;-80
2023/09/24 07:22:47;;;;;;;;;;;;;;;15.73;58.39;102475.22;4971420;28;118840;-81
2023/09/24 07:25:14;;;;;;;;;;;;;;;15.81;58.20;102476.72;4969864;28;124596;-81
2023/09/24 07:27:41;;;;;;;;;;;;;;;15.87;58.22;102481.81;4968124;28;123946;-80
2023/09/24 07:30:09;;;;;;;;;;;;;;;15.94;58.28;102483.31;4959389;28;119482;-80
2023/09/24 07:32:37;;;;;;;;;;;;;;;16.04;58.37;102484.63;4966884;28;119542;-80
2023/09/24 07:35:05;;;;;;;;;;;;;;;16.15;58.46;102487.72;4967806;28;124048;-80
2023/09/24 07:37:32;;;;;;;;;;;;;;;16.29;58.56;102488.94;4965761;28;125965;-80
2023/09/24 07:39:59;;;;;;;;;;;;;;;16.42;58.32;102490.16;4970551;28;119096;-80
2023/09/24 07:42:26;;;;;;;;;;;;;;;16.53;58.24;102492.38;4966694;28;119142;-80
2023/09/24 07:44:53;;;;;;;;;;;;;;;16.64;58.27;102494.59;4952946;28;123380;-80
2023/09/24 07:47:20;;;;;;;;;;;;;;;16.75;58.37;102489.63;4958328;28;125021;-81
2023/09/24 07:49:47;;;;;;;;;;;;;;;16.85;58.42;102488.28;4955679;28;120219;-80
2023/09/24 07:52:14;;;;;;;;;;;;;;;16.97;58.21;102496.72;4966120;28;120562;-80
2023/09/24 07:54:41;;;;;;;;;;;;;;;17.05;58.21;102494.56;4959133;28;125053;-80
2023/09/24 07:57:08;;;;;;;;;;;;;;;17.12;58.08;102496.88;4956541;28;123713;-80
2023/09/24 07:59:35;;;;;;;;;;;;;;;17.20;58.12;102495.66;4969194;28;119687;-80
2023/09/24 08:02:02;;;;;;;;;;;;;;;17.28;58.21;102491.66;4963729;28;121116;-81
2023/09/24 08:04:29;;;;;;;;;;;;;;;17.39;58.32;102493.00;4966168;28;124270;-81
2023/09/24 08:06:56;;;;;;;;;;;;;;;17.47;58.33;102490.81;4967503;28;124736;-80
2023/09/24 08:09:23;;;;;;;;;;;;;;;17.57;58.32;102491.22;4967108;28;119684;-80
2023/09/24 08:11:54;;;;;;;;;;;;;;;17.69;58.31;102491.50;4961136;28;119780;-82
2023/09/24 08:14:21;;;;;;;;;;;;;;;17.79;58.15;102494.59;4966109;28;123806;-81
2023/09/24 08:16:49;;;;;;;;;;;;;;;17.90;58.33;102494.13;4969987;28;123646;-80
2023/09/24 08:19:16;;;;;;;;;;;;;;;18.02;58.25;102493.47;4969077;28;117567;-82
2023/09/24 08:21:43;;;;;;;;;;;;;;;18.11;58.27;102486.81;4968991;28;120094;-83
2023/09/24 08:24:10;;;;;;;;;;;;;;;18.22;58.07;102488.94;4976142;28;122813;-81
2023/09/24 08:26:37;;;;;;;;;;;;;;;18.32;58.01;102495.56;4971633;28;123799;-82
2023/09/24 08:29:06;;;;;;;;;;;;;;;18.40;57.92;102498.75;4966836;28;119832;-80
2023/09/24 08:31:34;;;;;;;;;;;;;;;18.51;58.03;102499.97;4973001;28;118845;-80
2023/09/24 08:34:03;;;;;;;;;;;;;;;18.59;58.05;102504.00;4972924;28;123850;-81
2023/09/24 08:36:30;;;;;;;;;;;;;;;18.69;57.90;102499.03;4970384;28;122873;-80
2023/09/24 08:38:57;;;;;;;;;;;;;;;18.77;57.84;102502.16;4963569;28;120519;-80
2023/09/24 08:41:24;;;;;;;;;;;;;;;18.86;58.02;102490.97;4979222;28;119741;-81
2023/09/24 08:43:54;;;;;;;;;;;;;;;18.98;57.90;102493.94;4972709;28;124341;-81
2023/09/24 08:46:22;;;;;;;;;;;;;;;19.09;57.88;102496.91;4972193;28;124729;-81
2023/09/24 08:48:49;;;;;;;;;;;;;;;19.17;57.85;102494.66;4970364;28;118567;-81
2023/09/24 08:51:17;;;;;;;;;;;;;;;19.29;57.90;102497.59;4965641;28;119083;-80
2023/09/24 08:53:44;;;;;;;;;;;;;;;19.39;57.91;102498.84;4955951;28;122696;-78
2023/09/24 08:56:11;;;;;;;;;;;;;;;19.51;57.95;102500.84;4965885;28;124514;-81
2023/09/24 08:58:42;;;;;;;;;;;;;;;19.62;57.82;102498.41;4973934;28;119183;-79
2023/09/24 09:01:09;;;;;;;;;;;;;;;19.75;57.72;102500.44;4972591;28;119516;-80
2023/09/24 09:03:37;;;;;;;;;;;;;;;19.85;57.82;102496.25;4972897;28;124316;-80
2023/09/24 09:06:04;;;;;;;;;;;;;;;19.95;57.74;102497.47;4973217;28;124208;-79
2023/09/24 09:08:51;;;;;;;;;;;;;;;20.07;57.67;102500.38;4982288;28;119100;-80
2023/09/24 09:11:22;;;;;;;;;;;;;;;20.18;57.65;102492.56;4972924;28;119199;-79
2023/09/24 09:13:50;;;;;;;;;;;;;;;20.26;57.61;102484.88;4972166;28;124068;-79
2023/09/24 09:16:20;;;;;;;;;;;;;;;20.36;57.52;102485.19;4971260;28;124404;-81
2023/09/24 09:19:06;;;;;;;;;;;;;;;20.45;57.43;102483.78;4973399;28;119134;-80
2023/09/24 09:21:33;;;;;;;;;;;;;;;20.55;57.45;102487.63;4971570;28;119308;-80
2023/09/24 09:24:00;;;;;;;;;;;;;;;20.66;57.44;102493.25;4958550;28;125219;-80
2023/09/24 09:26:30;;;;;;;;;;;;;;;20.74;57.43;102480.19;4964107;28;124966;-80
2023/09/24 09:28:57;;;;;;;;;;;;;;;20.84;57.34;102485.00;4972435;28;120920;-80
2023/09/24 09:31:24;;;;;;;;;;;;;;;20.92;57.25;102493.47;4972623;28;120271;-80
2023/09/24 09:33:51;;;;;;;;;;;;;;;20.99;57.32;102484.03;4972413;28;124800;-80
2023/09/24 09:36:22;;;;;;;;;;;;;;;21.07;57.21;102480.88;4973184;28;124453;-79
2023/09/24 09:38:50;;;;;;;;;;;;;;;21.16;57.23;102475.75;4971654;28;119240;-80
2023/09/24 09:41:18;;;;;;;;;;;;;;;21.26;57.11;102475.16;4970391;28;119624;-80
2023/09/24 09:43:46;;;;;;;;;;;;;;;21.33;56.97;102466.59;4969490;28;124101;-80
2023/09/24 09:46:18;;;;;;;;;;;;;;;21.40;56.93;102464.38;4969785;28;122880;-80
2023/09/24 09:48:50;;;;;;;;;;;;;;;21.46;56.81;102455.91;4969342;28;119458;-80
2023/09/24 09:51:19;;;;;;;;;;;;;;;21.50;56.93;102457.44;4960613;28;118680;-80
2023/09/24 09:53:46;;;;;;;;;;;;;;;21.55;56.74;102449.91;4957243;28;125576;-80
2023/09/24 09:56:14;;;;;;;;;;;;;;;21.60;56.73;102440.63;4958069;28;125213;-80
2023/09/24 09:58:43;;;;;;;;;;;;;;;21.65;56.74;102438.50;4969640;28;118831;-80
2023/09/24 10:01:10;;;;;;;;;;;;;;;21.70;56.72;102437.25;4968836;28;119131;-80
2023/09/24 10:03:39;;;;;;;;;;;;;;;21.75;56.59;102436.91;4969535;28;124128;-80
2023/09/24 10:06:08;;;;;;;;;;;;;;;21.81;56.65;102436.50;4969141;28;125791;-80
2023/09/24 10:08:38;;;;;;;;;;;;;;;21.85;56.54;102424.56;4967074;28;119306;-80
2023/09/24 10:11:06;;;;;;;;;;;;;;;21.95;56.54;102425.66;4968791;28;118902;-80
2023/09/24 10:13:40;;;;;;;;;;;;;;;22.00;56.52;102422.66;4951082;28;123790;-80
2023/09/24 10:16:25;;;;;;;;;;;;;;;22.07;56.42;102414.97;4967108;28;123975;-80
2023/09/24 10:18:56;;;;;;;;;;;;;;;22.15;56.59;102420.69;4969783;28;121045;-80
2023/09/24 10:21:28;;;;;;;;;;;;;;;22.21;56.36;102414.91;4958950;28;119826;-80
2023/09/24 10:23:55;;;;;;;;;;;;;;;22.29;56.31;102412.56;4964335;28;124831;-80
2023/09/24 10:26:41;;;;;;;;;;;;;;;22.37;56.17;102408.47;4967182;28;123426;-79
2023/09/24 10:29:08;;;;;;;;;;;;;;;22.45;56.32;102406.97;4967576;28;120155;-80
2023/09/24 10:31:34;;;;;;;;;;;;;;;22.50;56.27;102403.91;4975880;28;118440;-80
2023/09/24 10:34:02;;;;;;;;;;;;;;;22.58;56.29;102406.94;4968258;28;125090;-79
2023/09/24 10:36:31;;;;;;;;;;;;;;;22.64;56.09;102406.50;4968997;28;124321;-80
2023/09/24 10:39:05;;;;;;;;;;;;;;;22.68;56.08;102397.22;4967051;28;119933;-79
2023/09/24 10:41:33;;;;;;;;;;;;;;;22.72;56.13;102398.72;4967039;28;118470;-79
2023/09/24 10:44:19;;;;;;;;;;;;;;;22.82;55.99;102398.06;4958821;28;124162;-80
2023/09/24 10:46:46;;;;;;;;;;;;;;;22.87;55.74;102398.59;4948301;28;124931;-80
2023/09/24 10:49:26;;;;;;;;;;;;;;;22.92;55.75;102407.19;4944425;28;120110;-79
2023/09/24 10:51:58;;;;;;;;;;;;;;;22.95;55.59;102398.88;4944201;28;120494;-79
2023/09/24 10:54:25;;;;;;;;;;;;;;;23.00;55.78;102406.63;4962092;28;124369;-79
2023/09/24 10:56:52;;;;;;;;;;;;;;;23.05;55.80;102404.50;4935951;28;124251;-79
2023/09/24 10:59:31;;;;;;;;;;;;;;;23.10;55.63;102408.59;4947962;28;119650;-79
2023/09/24 11:01:58;;;;;;;;;;;;;;;23.17;55.55;102402.72;4948673;28;119365;-79
2023/09/24 11:04:25;;;;;;;;;;;;;;;23.21;55.61;102393.44;4950585;28;123383;-79
2023/09/24 11:06:53;;;;;;;;;;;;;;;23.26;55.47;102411.03;4960154;28;123417;-79
2023/09/24 11:09:21;;;;;;;;;;;;;;;23.28;55.31;102400.97;4967727;28;120341;-80
2023/09/24 11:11:48;;;;;;;;;;;;;;;23.33;55.37;102392.50;4956197;28;119556;-79
2023/09/24 11:14:22;;;;;;;;;;;;;;;23.38;55.29;102401.16;4979192;28;124738;-79
2023/09/24 11:16:49;;;;;;;;;;;;;;;23.42;55.09;102408.06;4961971;28;125071;-80
2023/09/24 11:19:37;;;;;;;;;;;;;;;23.43;54.97;102404.38;4963813;28;119392;-79
2023/09/24 11:22:19;;;;;;;;;;;;;;;23.46;55.09;102414.09;4961938;28;118558;-79
2023/09/24 11:24:50;;;;;;;;;;;;;;;23.47;54.88;102413.97;4966175;28;125227;-78
2023/09/24 11:27:18;;;;;;;;;;;;;;;23.49;55.12;102408.47;4959740;28;123782;-79
2023/09/24 11:30:05;;;;;;;;;;;;;;;23.55;55.01;102407.16;4964528;28;118355;-79
2023/09/24 11:32:32;;;;;;;;;;;;;;;23.64;55.01;102406.41;4964031;28;119152;-79
2023/09/24 11:35:05;;;;;;;;;;;;;;;23.69;54.98;102407.78;4961090;28;124411;-79
2023/09/24 11:37:52;;;;;;;;;;;;;;;23.76;54.93;102400.09;4963618;28;124883;-79
2023/09/24 11:40:23;;;;;;;;;;;;;;;23.79;54.55;102389.06;4961730;28;119447;-79
2023/09/24 11:42:57;;;;;;;;;;;;;;;23.81;54.92;102381.69;4963821;28;117992;-79
2023/09/24 11:45:48;;;;;;;;;;;;;;;23.85;54.56;102394.00;4959244;28;124395;-79
2023/09/24 11:48:22;;;;;;;;;;;;;;;23.90;54.61;102391.81;4964723;28;124089;-79
2023/09/24 11:50:49;;;;;;;;;;;;;;;23.92;54.43;102382.69;4964613;28;119683;-79
2023/09/24 11:53:17;;;;;;;;;;;;;;;23.95;54.62;102382.47;4976231;28;118882;-79
2023/09/24 11:55:45;;;;;;;;;;;;;;;23.99;54.37;102389.38;4964379;28;123878;-78
2023/09/24 11:58:13;;;;;;;;;;;;;;;24.03;54.15;102380.03;4965684;28;122800;-79
2023/09/24 12:00:43;;;;;;;;;;;;;;;24.10;54.29;102378.56;4964882;28;120588;-79
2023/09/24 12:03:13;;;;;;;;;;;;;;;24.15;54.19;102379.06;4961559;28;118264;-79
2023/09/24 12:05:41;;;;;;;;;;;;;;;24.18;54.16;102378.81;4961883;28;124784;-79
2023/09/24 12:08:08;;;;;;;;;;;;;;;24.23;54.16;102387.44;4967104;28;123173;-79
2023/09/24 12:10:38;;;;;;;;;;;;;;;24.31;54.11;102384.13;4947769;28;118656;-79
2023/09/24 12:13:05;;;;;;;;;;;;;;;24.38;54.11;102374.53;4948841;28;119272;-79
2023/09/24 12:15:33;;;;;;;;;;;;;;;24.45;53.99;102377.63;4958042;28;123469;-79
2023/09/24 12:18:03;;;;;;;;;;;;;;;24.50;53.86;102378.09;4964910;28;124206;-79
2023/09/24 12:20:31;;;;;;;;;;;;;;;24.51;53.96;102379.84;4962077;28;121361;-79
2023/09/24 12:23:02;;;;;;;;;;;;;;;24.56;53.89;102380.34;4955013;28;118174;-79
2023/09/24 12:25:29;;;;;;;;;;;;;;;24.61;53.77;102382.69;4959335;28;125185;-79
2023/09/24 12:27:56;;;;;;;;;;;;;;;24.61;53.54;102375.44;4938638;28;123262;-79
2023/09/24 12:30:23;;;;;;;;;;;;;;;24.61;53.73;102370.00;4958738;28;119520;-79
2023/09/24 12:32:50;;;;;;;;;;;;;;;24.64;53.51;102375.19;4961748;28;119175;-79
2023/09/24 12:35:17;;;;;;;;;;;;;;;24.65;53.45;102360.63;4955094;28;124517;-79
2023/09/24 12:37:44;;;;;;;;;;;;;;;24.65;53.37;102366.06;4967156;28;123426;-79